sensor_id;sensor_type;location;lat;lon;timestamp;P1;durP1;ratioP1;P2;durP2;ratioP2
54235;SDS011;40151;43.606;1.472;2023-02-26T00:02:00;4.15;;;2.50;;
54235;SDS011;40151;43.606;1.472;2023-02-26T00:04:26;4.93;;;2.60;;
54235;SDS011;40151;43.606;1.472;2023-02-26T00:06:52;6.28;;;3.30;;
54235;SDS011;40151;43.606;1.472;2023-02-26T00:09:17;5.68;;;3.28;;
54235;SDS011;40151;43.606;1.472;2023-02-26T00:11:43;4.88;;;2.50;;
54235;SDS011;40151;43.606;1.472;2023-02-26T00:14:12;4.57;;;3.00;;
54235;SDS011;40151;43.606;1.472;2023-02-26T00:16:39;4.63;;;2.88;;
54235;SDS011;40151;43.606;1.472;2023-02-26T00:19:05;5.35;;;3.00;;
54235;SDS011;40151;43.606;1.472;2023-02-26T00:21:32;4.85;;;2.78;;
54235;SDS011;40151;43.606;1.472;2023-02-26T00:23:59;4.18;;;2.85;;
54235;SDS011;40151;43.606;1.472;2023-02-26T00:26:26;4.22;;;2.67;;
54235;SDS011;40151;43.606;1.472;2023-02-26T00:28:53;5.25;;;2.70;;
54235;SDS011;40151;43.606;1.472;2023-02-26T00:31:19;4.72;;;2.60;;
54235;SDS011;40151;43.606;1.472;2023-02-26T00:33:48;4.80;;;2.75;;
54235;SDS011;40151;43.606;1.472;2023-02-26T00:38:40;4.65;;;2.65;;
54235;SDS011;40151;43.606;1.472;2023-02-26T00:41:09;4.97;;;2.72;;
54235;SDS011;40151;43.606;1.472;2023-02-26T00:43:35;5.00;;;2.65;;
54235;SDS011;40151;43.606;1.472;2023-02-26T00:48:49;5.72;;;3.30;;
54235;SDS011;40151;43.606;1.472;2023-02-26T00:51:36;5.35;;;2.90;;
54235;SDS011;40151;43.606;1.472;2023-02-26T00:54:13;6.00;;;2.80;;
54235;SDS011;40151;43.606;1.472;2023-02-26T00:56:43;4.72;;;2.67;;
54235;SDS011;40151;43.606;1.472;2023-02-26T00:59:09;4.53;;;2.60;;
54235;SDS011;40151;43.606;1.472;2023-02-26T01:01:34;4.85;;;2.50;;
54235;SDS011;40151;43.606;1.472;2023-02-26T01:03:59;4.80;;;2.70;;
54235;SDS011;40151;43.606;1.472;2023-02-26T01:06:29;5.00;;;2.70;;
54235;SDS011;40151;43.606;1.472;2023-02-26T01:09:01;4.25;;;2.70;;
54235;SDS011;40151;43.606;1.472;2023-02-26T01:11:29;5.18;;;2.70;;
54235;SDS011;40151;43.606;1.472;2023-02-26T01:13:55;5.00;;;2.90;;
54235;SDS011;40151;43.606;1.472;2023-02-26T01:16:21;4.43;;;2.80;;
54235;SDS011;40151;43.606;1.472;2023-02-26T01:19:15;4.78;;;2.65;;
54235;SDS011;40151;43.606;1.472;2023-02-26T01:22:02;4.80;;;3.05;;
54235;SDS011;40151;43.606;1.472;2023-02-26T01:24:58;5.35;;;2.85;;
54235;SDS011;40151;43.606;1.472;2023-02-26T01:27:27;5.32;;;3.00;;
54235;SDS011;40151;43.606;1.472;2023-02-26T01:29:53;5.57;;;2.90;;
54235;SDS011;40151;43.606;1.472;2023-02-26T01:43:05;4.43;;;2.63;;
54235;SDS011;40151;43.606;1.472;2023-02-26T01:45:34;4.50;;;2.58;;
54235;SDS011;40151;43.606;1.472;2023-02-26T01:48:12;6.68;;;2.92;;
54235;SDS011;40151;43.606;1.472;2023-02-26T01:50:46;6.45;;;3.30;;
54235;SDS011;40151;43.606;1.472;2023-02-26T01:53:24;4.90;;;2.83;;
54235;SDS011;40151;43.606;1.472;2023-02-26T01:55:57;5.97;;;2.90;;
54235;SDS011;40151;43.606;1.472;2023-02-26T02:00:55;6.85;;;3.67;;
54235;SDS011;40151;43.606;1.472;2023-02-26T02:03:20;6.35;;;3.30;;
54235;SDS011;40151;43.606;1.472;2023-02-26T02:05:49;5.60;;;3.40;;
54235;SDS011;40151;43.606;1.472;2023-02-26T02:08:19;4.30;;;2.90;;
54235;SDS011;40151;43.606;1.472;2023-02-26T02:10:46;5.18;;;2.95;;
54235;SDS011;40151;43.606;1.472;2023-02-26T02:13:33;5.28;;;3.13;;
54235;SDS011;40151;43.606;1.472;2023-02-26T02:24:50;5.63;;;3.40;;
54235;SDS011;40151;43.606;1.472;2023-02-26T02:32:48;5.20;;;3.00;;
54235;SDS011;40151;43.606;1.472;2023-02-26T02:35:26;6.05;;;3.17;;
54235;SDS011;40151;43.606;1.472;2023-02-26T02:40:31;6.13;;;3.13;;
54235;SDS011;40151;43.606;1.472;2023-02-26T02:43:03;5.10;;;2.95;;
54235;SDS011;40151;43.606;1.472;2023-02-26T02:48:23;6.53;;;3.22;;
54235;SDS011;40151;43.606;1.472;2023-02-26T02:50:57;5.18;;;3.45;;
54235;SDS011;40151;43.606;1.472;2023-02-26T02:53:46;5.28;;;3.35;;
54235;SDS011;40151;43.606;1.472;2023-02-26T02:56:18;4.88;;;3.10;;
54235;SDS011;40151;43.606;1.472;2023-02-26T02:58:54;5.55;;;3.30;;
54235;SDS011;40151;43.606;1.472;2023-02-26T03:01:23;4.97;;;3.10;;
54235;SDS011;40151;43.606;1.472;2023-02-26T03:03:56;5.13;;;2.58;;
54235;SDS011;40151;43.606;1.472;2023-02-26T03:06:23;4.88;;;2.47;;
54235;SDS011;40151;43.606;1.472;2023-02-26T03:08:49;7.38;;;3.22;;
54235;SDS011;40151;43.606;1.472;2023-02-26T03:11:16;5.18;;;3.22;;
54235;SDS011;40151;43.606;1.472;2023-02-26T03:13:42;5.43;;;2.90;;
54235;SDS011;40151;43.606;1.472;2023-02-26T03:21:16;4.20;;;2.63;;
54235;SDS011;40151;43.606;1.472;2023-02-26T03:26:29;5.72;;;2.80;;
54235;SDS011;40151;43.606;1.472;2023-02-26T03:29:01;3.90;;;2.38;;
54235;SDS011;40151;43.606;1.472;2023-02-26T03:31:46;5.15;;;2.80;;
54235;SDS011;40151;43.606;1.472;2023-02-26T03:34:26;5.20;;;2.83;;
54235;SDS011;40151;43.606;1.472;2023-02-26T03:37:01;6.05;;;3.10;;
54235;SDS011;40151;43.606;1.472;2023-02-26T03:39:39;5.35;;;2.65;;
54235;SDS011;40151;43.606;1.472;2023-02-26T03:42:08;5.07;;;2.90;;
54235;SDS011;40151;43.606;1.472;2023-02-26T03:44:56;5.95;;;2.65;;
54235;SDS011;40151;43.606;1.472;2023-02-26T03:47:25;4.95;;;2.50;;
54235;SDS011;40151;43.606;1.472;2023-02-26T03:49:56;4.65;;;2.30;;
54235;SDS011;40151;43.606;1.472;2023-02-26T03:52:41;4.40;;;2.60;;
54235;SDS011;40151;43.606;1.472;2023-02-26T03:55:13;4.90;;;2.60;;
54235;SDS011;40151;43.606;1.472;2023-02-26T03:57:43;3.45;;;2.10;;
54235;SDS011;40151;43.606;1.472;2023-02-26T04:00:10;4.43;;;2.78;;
54235;SDS011;40151;43.606;1.472;2023-02-26T04:02:44;4.75;;;2.40;;
54235;SDS011;40151;43.606;1.472;2023-02-26T04:05:32;5.38;;;2.58;;
54235;SDS011;40151;43.606;1.472;2023-02-26T04:08:01;4.85;;;2.60;;
54235;SDS011;40151;43.606;1.472;2023-02-26T04:10:35;4.00;;;2.10;;
54235;SDS011;40151;43.606;1.472;2023-02-26T04:13:06;3.65;;;2.10;;
54235;SDS011;40151;43.606;1.472;2023-02-26T04:15:32;5.00;;;2.38;;
54235;SDS011;40151;43.606;1.472;2023-02-26T04:17:57;4.18;;;2.10;;
54235;SDS011;40151;43.606;1.472;2023-02-26T04:20:23;3.38;;;2.33;;
54235;SDS011;40151;43.606;1.472;2023-02-26T04:22:48;5.28;;;2.60;;
54235;SDS011;40151;43.606;1.472;2023-02-26T04:25:14;4.07;;;1.80;;
54235;SDS011;40151;43.606;1.472;2023-02-26T04:27:39;4.40;;;2.10;;
54235;SDS011;40151;43.606;1.472;2023-02-26T04:30:05;4.50;;;2.10;;
54235;SDS011;40151;43.606;1.472;2023-02-26T04:32:31;4.57;;;2.17;;
54235;SDS011;40151;43.606;1.472;2023-02-26T04:34:57;4.05;;;2.00;;
54235;SDS011;40151;43.606;1.472;2023-02-26T04:37:22;3.63;;;2.15;;
54235;SDS011;40151;43.606;1.472;2023-02-26T04:39:47;4.38;;;2.15;;
54235;SDS011;40151;43.606;1.472;2023-02-26T04:42:13;3.58;;;2.20;;
54235;SDS011;40151;43.606;1.472;2023-02-26T04:44:38;4.60;;;2.03;;
54235;SDS011;40151;43.606;1.472;2023-02-26T04:47:04;3.85;;;2.05;;
54235;SDS011;40151;43.606;1.472;2023-02-26T04:49:29;3.88;;;2.08;;
54235;SDS011;40151;43.606;1.472;2023-02-26T04:51:55;4.18;;;1.63;;
54235;SDS011;40151;43.606;1.472;2023-02-26T04:54:20;7.15;;;2.47;;
54235;SDS011;40151;43.606;1.472;2023-02-26T04:56:46;3.47;;;1.83;;
54235;SDS011;40151;43.606;1.472;2023-02-26T04:59:11;4.22;;;2.10;;
54235;SDS011;40151;43.606;1.472;2023-02-26T05:01:37;4.93;;;2.28;;
54235;SDS011;40151;43.606;1.472;2023-02-26T05:04:02;4.05;;;1.80;;
54235;SDS011;40151;43.606;1.472;2023-02-26T05:06:28;5.65;;;2.15;;
54235;SDS011;40151;43.606;1.472;2023-02-26T05:08:53;3.85;;;1.92;;
54235;SDS011;40151;43.606;1.472;2023-02-26T05:11:19;4.00;;;2.20;;
54235;SDS011;40151;43.606;1.472;2023-02-26T05:13:44;3.47;;;2.08;;
54235;SDS011;40151;43.606;1.472;2023-02-26T05:16:09;4.13;;;2.08;;
54235;SDS011;40151;43.606;1.472;2023-02-26T05:18:35;4.07;;;1.83;;
54235;SDS011;40151;43.606;1.472;2023-02-26T05:21:01;3.50;;;1.88;;
54235;SDS011;40151;43.606;1.472;2023-02-26T05:23:26;5.38;;;2.10;;
54235;SDS011;40151;43.606;1.472;2023-02-26T05:25:56;2.95;;;1.77;;
54235;SDS011;40151;43.606;1.472;2023-02-26T05:28:23;3.88;;;1.85;;
54235;SDS011;40151;43.606;1.472;2023-02-26T05:30:49;3.22;;;2.03;;
54235;SDS011;40151;43.606;1.472;2023-02-26T05:33:15;2.97;;;1.67;;
54235;SDS011;40151;43.606;1.472;2023-02-26T05:35:41;3.55;;;1.83;;
54235;SDS011;40151;43.606;1.472;2023-02-26T05:38:06;4.10;;;1.67;;
54235;SDS011;40151;43.606;1.472;2023-02-26T05:40:32;3.58;;;1.80;;
54235;SDS011;40151;43.606;1.472;2023-02-26T05:42:57;2.90;;;1.63;;
54235;SDS011;40151;43.606;1.472;2023-02-26T05:45:23;3.00;;;1.80;;
54235;SDS011;40151;43.606;1.472;2023-02-26T05:47:48;3.28;;;1.50;;
54235;SDS011;40151;43.606;1.472;2023-02-26T05:50:14;3.15;;;1.55;;
54235;SDS011;40151;43.606;1.472;2023-02-26T05:52:39;2.70;;;1.65;;
54235;SDS011;40151;43.606;1.472;2023-02-26T05:55:05;3.17;;;1.52;;
54235;SDS011;40151;43.606;1.472;2023-02-26T05:57:31;3.55;;;1.70;;
54235;SDS011;40151;43.606;1.472;2023-02-26T05:59:56;3.47;;;1.55;;
54235;SDS011;40151;43.606;1.472;2023-02-26T06:02:22;2.80;;;1.60;;
54235;SDS011;40151;43.606;1.472;2023-02-26T06:04:47;3.47;;;1.60;;
54235;SDS011;40151;43.606;1.472;2023-02-26T06:07:12;2.80;;;1.50;;
54235;SDS011;40151;43.606;1.472;2023-02-26T06:09:38;3.90;;;2.00;;
54235;SDS011;40151;43.606;1.472;2023-02-26T06:12:03;3.03;;;1.77;;
54235;SDS011;40151;43.606;1.472;2023-02-26T06:14:30;3.88;;;2.00;;
54235;SDS011;40151;43.606;1.472;2023-02-26T06:16:56;4.47;;;1.88;;
54235;SDS011;40151;43.606;1.472;2023-02-26T06:19:21;2.58;;;1.42;;
54235;SDS011;40151;43.606;1.472;2023-02-26T06:21:47;4.15;;;2.00;;
54235;SDS011;40151;43.606;1.472;2023-02-26T06:24:12;4.13;;;2.03;;
54235;SDS011;40151;43.606;1.472;2023-02-26T06:26:38;3.53;;;1.52;;
54235;SDS011;40151;43.606;1.472;2023-02-26T06:29:03;4.40;;;1.77;;
54235;SDS011;40151;43.606;1.472;2023-02-26T06:31:29;2.58;;;1.45;;
54235;SDS011;40151;43.606;1.472;2023-02-26T06:33:54;4.03;;;1.60;;
54235;SDS011;40151;43.606;1.472;2023-02-26T06:36:20;3.63;;;1.50;;
54235;SDS011;40151;43.606;1.472;2023-02-26T06:38:45;3.55;;;1.75;;
54235;SDS011;40151;43.606;1.472;2023-02-26T06:41:10;3.20;;;1.60;;
54235;SDS011;40151;43.606;1.472;2023-02-26T06:43:36;3.42;;;1.60;;
54235;SDS011;40151;43.606;1.472;2023-02-26T06:46:02;4.60;;;2.05;;
54235;SDS011;40151;43.606;1.472;2023-02-26T06:48:28;3.30;;;1.50;;
54235;SDS011;40151;43.606;1.472;2023-02-26T06:50:53;2.58;;;1.50;;
54235;SDS011;40151;43.606;1.472;2023-02-26T06:53:19;3.22;;;1.70;;
54235;SDS011;40151;43.606;1.472;2023-02-26T06:55:44;3.65;;;1.98;;
54235;SDS011;40151;43.606;1.472;2023-02-26T06:58:11;3.03;;;1.65;;
54235;SDS011;40151;43.606;1.472;2023-02-26T07:00:37;4.35;;;1.75;;
54235;SDS011;40151;43.606;1.472;2023-02-26T07:03:04;4.80;;;1.73;;
54235;SDS011;40151;43.606;1.472;2023-02-26T07:05:30;3.33;;;1.77;;
54235;SDS011;40151;43.606;1.472;2023-02-26T07:07:55;6.57;;;2.15;;
54235;SDS011;40151;43.606;1.472;2023-02-26T07:10:21;3.35;;;1.70;;
54235;SDS011;40151;43.606;1.472;2023-02-26T07:12:48;3.30;;;1.92;;
54235;SDS011;40151;43.606;1.472;2023-02-26T07:15:14;2.65;;;1.30;;
54235;SDS011;40151;43.606;1.472;2023-02-26T07:17:40;4.05;;;1.70;;
54235;SDS011;40151;43.606;1.472;2023-02-26T07:20:06;4.82;;;1.70;;
54235;SDS011;40151;43.606;1.472;2023-02-26T07:22:34;3.03;;;1.60;;
54235;SDS011;40151;43.606;1.472;2023-02-26T07:25:00;4.40;;;1.50;;
54235;SDS011;40151;43.606;1.472;2023-02-26T07:27:26;3.90;;;1.73;;
54235;SDS011;40151;43.606;1.472;2023-02-26T07:29:51;4.38;;;1.85;;
54235;SDS011;40151;43.606;1.472;2023-02-26T07:32:17;3.33;;;1.38;;
54235;SDS011;40151;43.606;1.472;2023-02-26T07:34:42;2.92;;;1.30;;
54235;SDS011;40151;43.606;1.472;2023-02-26T07:37:08;5.25;;;1.98;;
54235;SDS011;40151;43.606;1.472;2023-02-26T07:39:33;3.95;;;1.60;;
54235;SDS011;40151;43.606;1.472;2023-02-26T07:41:58;3.72;;;1.70;;
54235;SDS011;40151;43.606;1.472;2023-02-26T07:44:24;5.60;;;2.22;;
54235;SDS011;40151;43.606;1.472;2023-02-26T07:46:49;3.28;;;1.67;;
54235;SDS011;40151;43.606;1.472;2023-02-26T07:49:15;4.00;;;1.73;;
54235;SDS011;40151;43.606;1.472;2023-02-26T07:51:40;3.15;;;1.60;;
54235;SDS011;40151;43.606;1.472;2023-02-26T07:54:09;2.92;;;1.40;;
54235;SDS011;40151;43.606;1.472;2023-02-26T07:56:36;4.45;;;1.75;;
54235;SDS011;40151;43.606;1.472;2023-02-26T07:59:02;3.53;;;1.73;;
54235;SDS011;40151;43.606;1.472;2023-02-26T08:01:28;2.80;;;1.58;;
54235;SDS011;40151;43.606;1.472;2023-02-26T08:03:53;4.05;;;1.60;;
54235;SDS011;40151;43.606;1.472;2023-02-26T08:06:18;5.03;;;1.60;;
54235;SDS011;40151;43.606;1.472;2023-02-26T08:08:44;4.05;;;1.33;;
54235;SDS011;40151;43.606;1.472;2023-02-26T08:11:09;3.60;;;1.60;;
54235;SDS011;40151;43.606;1.472;2023-02-26T08:13:35;4.05;;;1.52;;
54235;SDS011;40151;43.606;1.472;2023-02-26T08:16:00;5.68;;;1.60;;
54235;SDS011;40151;43.606;1.472;2023-02-26T08:18:25;4.18;;;1.67;;
54235;SDS011;40151;43.606;1.472;2023-02-26T08:20:51;3.42;;;1.63;;
54235;SDS011;40151;43.606;1.472;2023-02-26T08:23:16;4.43;;;1.80;;
54235;SDS011;40151;43.606;1.472;2023-02-26T08:25:42;3.35;;;1.70;;
54235;SDS011;40151;43.606;1.472;2023-02-26T08:28:07;4.50;;;2.05;;
54235;SDS011;40151;43.606;1.472;2023-02-26T08:30:33;4.15;;;1.70;;
54235;SDS011;40151;43.606;1.472;2023-02-26T08:32:58;3.38;;;1.45;;
54235;SDS011;40151;43.606;1.472;2023-02-26T08:35:24;5.00;;;1.77;;
54235;SDS011;40151;43.606;1.472;2023-02-26T08:37:49;4.40;;;1.60;;
54235;SDS011;40151;43.606;1.472;2023-02-26T08:40:15;4.50;;;1.83;;
54235;SDS011;40151;43.606;1.472;2023-02-26T08:42:41;4.13;;;1.70;;
54235;SDS011;40151;43.606;1.472;2023-02-26T08:45:06;5.60;;;2.10;;
54235;SDS011;40151;43.606;1.472;2023-02-26T08:47:32;5.05;;;1.70;;
54235;SDS011;40151;43.606;1.472;2023-02-26T08:49:58;4.22;;;1.65;;
54235;SDS011;40151;43.606;1.472;2023-02-26T08:52:23;3.50;;;1.75;;
54235;SDS011;40151;43.606;1.472;2023-02-26T08:54:49;5.93;;;2.38;;
54235;SDS011;40151;43.606;1.472;2023-02-26T08:57:14;5.25;;;2.13;;
54235;SDS011;40151;43.606;1.472;2023-02-26T08:59:40;4.47;;;1.67;;
54235;SDS011;40151;43.606;1.472;2023-02-26T09:02:06;4.25;;;2.00;;
54235;SDS011;40151;43.606;1.472;2023-02-26T09:04:31;4.10;;;1.63;;
54235;SDS011;40151;43.606;1.472;2023-02-26T09:06:57;4.93;;;2.10;;
54235;SDS011;40151;43.606;1.472;2023-02-26T09:09:22;5.40;;;2.10;;
54235;SDS011;40151;43.606;1.472;2023-02-26T09:11:48;3.45;;;1.70;;
54235;SDS011;40151;43.606;1.472;2023-02-26T09:14:13;4.80;;;1.80;;
54235;SDS011;40151;43.606;1.472;2023-02-26T09:16:39;4.55;;;2.10;;
54235;SDS011;40151;43.606;1.472;2023-02-26T09:19:05;6.47;;;2.08;;
54235;SDS011;40151;43.606;1.472;2023-02-26T09:21:31;3.60;;;2.10;;
54235;SDS011;40151;43.606;1.472;2023-02-26T09:23:57;4.53;;;2.10;;
54235;SDS011;40151;43.606;1.472;2023-02-26T09:26:23;5.63;;;1.80;;
54235;SDS011;40151;43.606;1.472;2023-02-26T09:28:49;5.40;;;2.30;;
54235;SDS011;40151;43.606;1.472;2023-02-26T09:31:14;4.78;;;2.13;;
54235;SDS011;40151;43.606;1.472;2023-02-26T09:33:40;5.13;;;2.10;;
54235;SDS011;40151;43.606;1.472;2023-02-26T09:36:05;6.00;;;1.98;;
54235;SDS011;40151;43.606;1.472;2023-02-26T09:38:31;4.35;;;2.10;;
54235;SDS011;40151;43.606;1.472;2023-02-26T09:43:47;4.18;;;1.80;;
54235;SDS011;40151;43.606;1.472;2023-02-26T09:54:51;4.40;;;2.08;;
54235;SDS011;40151;43.606;1.472;2023-02-26T09:59:56;4.72;;;1.92;;
54235;SDS011;40151;43.606;1.472;2023-02-26T10:02:37;5.03;;;1.90;;
54235;SDS011;40151;43.606;1.472;2023-02-26T10:05:16;5.60;;;2.00;;
54235;SDS011;40151;43.606;1.472;2023-02-26T10:10:49;4.97;;;2.05;;
54235;SDS011;40151;43.606;1.472;2023-02-26T10:14:23;4.07;;;1.90;;
54235;SDS011;40151;43.606;1.472;2023-02-26T10:16:24;4.32;;;1.70;;
54235;SDS011;40151;43.606;1.472;2023-02-26T10:18:54;5.45;;;2.47;;
54235;SDS011;40151;43.606;1.472;2023-02-26T10:21:34;5.72;;;2.42;;
54235;SDS011;40151;43.606;1.472;2023-02-26T10:24:10;3.67;;;1.80;;
54235;SDS011;40151;43.606;1.472;2023-02-26T10:26:56;4.40;;;2.08;;
54235;SDS011;40151;43.606;1.472;2023-02-26T10:35:13;5.10;;;1.92;;
54235;SDS011;40151;43.606;1.472;2023-02-26T10:40:16;6.25;;;2.35;;
54235;SDS011;40151;43.606;1.472;2023-02-26T10:42:55;5.00;;;2.20;;
54235;SDS011;40151;43.606;1.472;2023-02-26T10:45:36;5.32;;;2.42;;
54235;SDS011;40151;43.606;1.472;2023-02-26T10:51:15;3.70;;;1.63;;
54235;SDS011;40151;43.606;1.472;2023-02-26T10:53:45;5.18;;;1.67;;
54235;SDS011;40151;43.606;1.472;2023-02-26T10:56:19;4.85;;;2.33;;
54235;SDS011;40151;43.606;1.472;2023-02-26T10:58:48;4.55;;;2.10;;
54235;SDS011;40151;43.606;1.472;2023-02-26T11:01:16;5.75;;;2.20;;
54235;SDS011;40151;43.606;1.472;2023-02-26T11:03:46;4.80;;;2.10;;
54235;SDS011;40151;43.606;1.472;2023-02-26T11:06:22;5.93;;;2.10;;
54235;SDS011;40151;43.606;1.472;2023-02-26T11:08:53;4.80;;;2.00;;
54235;SDS011;40151;43.606;1.472;2023-02-26T11:14:04;5.15;;;1.83;;
54235;SDS011;40151;43.606;1.472;2023-02-26T11:16:30;4.28;;;2.03;;
54235;SDS011;40151;43.606;1.472;2023-02-26T11:18:57;5.70;;;2.20;;
54235;SDS011;40151;43.606;1.472;2023-02-26T11:21:28;4.88;;;2.35;;
54235;SDS011;40151;43.606;1.472;2023-02-26T11:24:04;5.40;;;2.10;;
54235;SDS011;40151;43.606;1.472;2023-02-26T11:26:36;4.90;;;2.10;;
54235;SDS011;40151;43.606;1.472;2023-02-26T11:29:03;5.30;;;2.13;;
54235;SDS011;40151;43.606;1.472;2023-02-26T11:31:29;3.80;;;1.83;;
54235;SDS011;40151;43.606;1.472;2023-02-26T11:34:03;4.90;;;2.13;;
54235;SDS011;40151;43.606;1.472;2023-02-26T11:36:32;5.35;;;2.00;;
54235;SDS011;40151;43.606;1.472;2023-02-26T11:41:38;4.60;;;2.30;;
54235;SDS011;40151;43.606;1.472;2023-02-26T11:44:05;5.28;;;2.50;;
54235;SDS011;40151;43.606;1.472;2023-02-26T11:46:41;4.32;;;1.90;;
54235;SDS011;40151;43.606;1.472;2023-02-26T11:49:09;5.57;;;2.10;;
54235;SDS011;40151;43.606;1.472;2023-02-26T11:51:38;5.07;;;2.13;;
54235;SDS011;40151;43.606;1.472;2023-02-26T11:54:18;6.25;;;2.22;;
54235;SDS011;40151;43.606;1.472;2023-02-26T11:56:46;5.35;;;2.00;;
54235;SDS011;40151;43.606;1.472;2023-02-26T11:59:19;4.85;;;2.28;;
54235;SDS011;40151;43.606;1.472;2023-02-26T12:01:46;4.63;;;2.30;;
54235;SDS011;40151;43.606;1.472;2023-02-26T12:04:13;5.32;;;2.30;;
54235;SDS011;40151;43.606;1.472;2023-02-26T12:06:42;5.47;;;2.22;;
54235;SDS011;40151;43.606;1.472;2023-02-26T12:09:12;5.03;;;2.10;;
54235;SDS011;40151;43.606;1.472;2023-02-26T12:11:41;4.90;;;2.15;;
54235;SDS011;40151;43.606;1.472;2023-02-26T12:17:23;5.22;;;2.22;;
54235;SDS011;40151;43.606;1.472;2023-02-26T12:42:02;4.93;;;2.20;;
54235;SDS011;40151;43.606;1.472;2023-02-26T12:47:27;4.53;;;2.47;;
54235;SDS011;40151;43.606;1.472;2023-02-26T12:52:59;4.68;;;2.35;;
54235;SDS011;40151;43.606;1.472;2023-02-26T12:58:24;5.00;;;2.10;;
54235;SDS011;40151;43.606;1.472;2023-02-26T13:03:42;4.30;;;2.22;;
54235;SDS011;40151;43.606;1.472;2023-02-26T13:08:59;5.60;;;1.80;;
54235;SDS011;40151;43.606;1.472;2023-02-26T13:20:09;4.22;;;2.20;;
54235;SDS011;40151;43.606;1.472;2023-02-26T13:22:38;5.00;;;2.05;;
54235;SDS011;40151;43.606;1.472;2023-02-26T13:28:21;4.97;;;2.23;;
54235;SDS011;40151;43.606;1.472;2023-02-26T13:31:04;3.50;;;1.92;;
54235;SDS011;40151;43.606;1.472;2023-02-26T13:33:50;4.65;;;2.00;;
54235;SDS011;40151;43.606;1.472;2023-02-26T13:36:18;5.00;;;1.85;;
54235;SDS011;40151;43.606;1.472;2023-02-26T13:44:37;4.03;;;1.70;;
54235;SDS011;40151;43.606;1.472;2023-02-26T13:47:33;4.32;;;2.25;;
54235;SDS011;40151;43.606;1.472;2023-02-26T13:52:52;4.10;;;1.30;;
54235;SDS011;40151;43.606;1.472;2023-02-26T13:55:53;4.38;;;1.70;;
54235;SDS011;40151;43.606;1.472;2023-02-26T14:01:17;3.20;;;1.40;;
54235;SDS011;40151;43.606;1.472;2023-02-26T14:04:08;3.03;;;1.70;;
54235;SDS011;40151;43.606;1.472;2023-02-26T14:11:59;5.32;;;1.40;;
54235;SDS011;40151;43.606;1.472;2023-02-26T14:14:33;3.42;;;1.33;;
54235;SDS011;40151;43.606;1.472;2023-02-26T14:19:41;2.75;;;1.35;;
54235;SDS011;40151;43.606;1.472;2023-02-26T14:25:09;3.40;;;1.50;;
54235;SDS011;40151;43.606;1.472;2023-02-26T14:27:43;3.58;;;1.40;;
54235;SDS011;40151;43.606;1.472;2023-02-26T14:30:27;3.17;;;1.58;;
54235;SDS011;40151;43.606;1.472;2023-02-26T14:35:29;2.60;;;1.10;;
54235;SDS011;40151;43.606;1.472;2023-02-26T14:37:58;2.38;;;1.25;;
54235;SDS011;40151;43.606;1.472;2023-02-26T14:40:28;4.05;;;1.42;;
54235;SDS011;40151;43.606;1.472;2023-02-26T14:42:59;3.55;;;1.20;;
54235;SDS011;40151;43.606;1.472;2023-02-26T14:45:39;3.63;;;1.77;;
54235;SDS011;40151;43.606;1.472;2023-02-26T14:48:17;2.90;;;1.17;;
54235;SDS011;40151;43.606;1.472;2023-02-26T14:51:32;4.32;;;1.60;;
54235;SDS011;40151;43.606;1.472;2023-02-26T15:01:44;1.88;;;1.05;;
54235;SDS011;40151;43.606;1.472;2023-02-26T15:04:14;3.55;;;1.25;;
54235;SDS011;40151;43.606;1.472;2023-02-26T15:09:41;6.72;;;1.30;;
54235;SDS011;40151;43.606;1.472;2023-02-26T15:12:16;2.83;;;1.00;;
54235;SDS011;40151;43.606;1.472;2023-02-26T15:18:01;3.28;;;1.17;;
54235;SDS011;40151;43.606;1.472;2023-02-26T15:20:50;3.13;;;1.20;;
54235;SDS011;40151;43.606;1.472;2023-02-26T15:23:27;2.45;;;0.95;;
54235;SDS011;40151;43.606;1.472;2023-02-26T15:26:00;1.92;;;0.95;;
54235;SDS011;40151;43.606;1.472;2023-02-26T15:28:30;3.22;;;1.08;;
54235;SDS011;40151;43.606;1.472;2023-02-26T15:31:02;2.97;;;1.02;;
54235;SDS011;40151;43.606;1.472;2023-02-26T15:33:30;3.50;;;1.20;;
54235;SDS011;40151;43.606;1.472;2023-02-26T15:35:56;2.25;;;1.20;;
54235;SDS011;40151;43.606;1.472;2023-02-26T15:38:23;2.85;;;1.00;;
54235;SDS011;40151;43.606;1.472;2023-02-26T15:40:49;2.47;;;1.00;;
54235;SDS011;40151;43.606;1.472;2023-02-26T15:43:20;1.95;;;0.90;;
54235;SDS011;40151;43.606;1.472;2023-02-26T15:45:50;1.50;;;1.00;;
54235;SDS011;40151;43.606;1.472;2023-02-26T15:48:20;2.22;;;1.02;;
54235;SDS011;40151;43.606;1.472;2023-02-26T15:50:58;2.45;;;0.98;;
54235;SDS011;40151;43.606;1.472;2023-02-26T15:53:28;1.80;;;1.40;;
54235;SDS011;40151;43.606;1.472;2023-02-26T15:55:57;2.60;;;1.02;;
54235;SDS011;40151;43.606;1.472;2023-02-26T16:01:16;2.10;;;1.00;;
54235;SDS011;40151;43.606;1.472;2023-02-26T16:03:43;2.25;;;1.20;;
54235;SDS011;40151;43.606;1.472;2023-02-26T16:06:12;1.73;;;0.68;;
54235;SDS011;40151;43.606;1.472;2023-02-26T16:08:42;2.30;;;0.93;;
54235;SDS011;40151;43.606;1.472;2023-02-26T16:11:07;2.30;;;1.00;;
54235;SDS011;40151;43.606;1.472;2023-02-26T16:13:34;1.33;;;0.80;;
54235;SDS011;40151;43.606;1.472;2023-02-26T16:16:14;2.35;;;1.10;;
54235;SDS011;40151;43.606;1.472;2023-02-26T16:18:44;2.17;;;0.95;;
54235;SDS011;40151;43.606;1.472;2023-02-26T16:21:13;2.15;;;1.00;;
54235;SDS011;40151;43.606;1.472;2023-02-26T16:23:47;2.42;;;0.85;;
54235;SDS011;40151;43.606;1.472;2023-02-26T16:26:21;2.55;;;1.40;;
54235;SDS011;40151;43.606;1.472;2023-02-26T16:28:54;3.03;;;1.10;;
54235;SDS011;40151;43.606;1.472;2023-02-26T16:31:24;2.00;;;0.90;;
54235;SDS011;40151;43.606;1.472;2023-02-26T16:33:59;3.85;;;1.27;;
54235;SDS011;40151;43.606;1.472;2023-02-26T16:36:47;1.85;;;0.77;;
54235;SDS011;40151;43.606;1.472;2023-02-26T16:39:23;3.67;;;1.30;;
54235;SDS011;40151;43.606;1.472;2023-02-26T16:42:14;2.85;;;1.08;;
54235;SDS011;40151;43.606;1.472;2023-02-26T16:47:28;1.55;;;0.85;;
54235;SDS011;40151;43.606;1.472;2023-02-26T16:49:55;1.52;;;0.90;;
54235;SDS011;40151;43.606;1.472;2023-02-26T16:52:21;2.40;;;1.00;;
54235;SDS011;40151;43.606;1.472;2023-02-26T16:54:59;2.33;;;1.00;;
54235;SDS011;40151;43.606;1.472;2023-02-26T16:57:35;3.28;;;1.05;;
54235;SDS011;40151;43.606;1.472;2023-02-26T17:00:05;1.90;;;0.90;;
54235;SDS011;40151;43.606;1.472;2023-02-26T17:02:41;2.03;;;1.13;;
54235;SDS011;40151;43.606;1.472;2023-02-26T17:05:16;3.28;;;0.98;;
54235;SDS011;40151;43.606;1.472;2023-02-26T17:07:52;2.13;;;0.98;;
54235;SDS011;40151;43.606;1.472;2023-02-26T17:10:43;2.47;;;1.40;;
54235;SDS011;40151;43.606;1.472;2023-02-26T17:13:13;1.73;;;0.80;;
54235;SDS011;40151;43.606;1.472;2023-02-26T17:15:41;2.42;;;0.90;;
54235;SDS011;40151;43.606;1.472;2023-02-26T17:18:08;2.72;;;1.00;;
54235;SDS011;40151;43.606;1.472;2023-02-26T17:20:33;2.30;;;0.88;;
54235;SDS011;40151;43.606;1.472;2023-02-26T17:23:00;3.50;;;1.08;;
54235;SDS011;40151;43.606;1.472;2023-02-26T17:25:46;1.95;;;0.90;;
54235;SDS011;40151;43.606;1.472;2023-02-26T17:28:23;3.00;;;1.10;;
54235;SDS011;40151;43.606;1.472;2023-02-26T17:30:53;2.03;;;1.00;;
54235;SDS011;40151;43.606;1.472;2023-02-26T17:33:19;3.20;;;1.08;;
54235;SDS011;40151;43.606;1.472;2023-02-26T17:35:44;2.35;;;1.02;;
54235;SDS011;40151;43.606;1.472;2023-02-26T17:38:10;2.00;;;1.00;;
54235;SDS011;40151;43.606;1.472;2023-02-26T17:40:37;4.00;;;1.40;;
54235;SDS011;40151;43.606;1.472;2023-02-26T17:43:04;3.63;;;0.90;;
54235;SDS011;40151;43.606;1.472;2023-02-26T17:45:32;3.13;;;1.08;;
54235;SDS011;40151;43.606;1.472;2023-02-26T17:47:58;1.85;;;0.80;;
54235;SDS011;40151;43.606;1.472;2023-02-26T17:53:07;3.00;;;0.98;;
54235;SDS011;40151;43.606;1.472;2023-02-26T17:55:33;2.00;;;1.08;;
54235;SDS011;40151;43.606;1.472;2023-02-26T17:58:01;2.75;;;1.17;;
54235;SDS011;40151;43.606;1.472;2023-02-26T18:00:27;1.80;;;0.90;;
54235;SDS011;40151;43.606;1.472;2023-02-26T18:02:52;2.45;;;1.00;;